Terminal Aerodrome Forecast
Issued by NWS Shreveport, LA

Home | Current Version | Previous Version | Text Only | Print | Product List | Glossary On
Versions: 1 2 3 4 5 6 7 8 9 10 11 12 13 14 15 16 17 18 19
487
FTUS44 KSHV 301136
TAFLFK
TAF
KLFK 301136Z 3012/3112 00000KT P6SM SCT045 BKN150
     FM301400 06005KT P6SM FEW045 SCT150 SCT250
     FM301700 07007KT P6SM SCT030 SCT250
     FM301900 07007KT P6SM BKN045 BKN250
     FM310100 05003KT P6SM FEW060 SCT110 BKN250
     FM310600 03003KT P6SM FEW150 SCT250=

USA.gov is the U.S. government's official web portal to all federal, state and local government web resources and services.